Huanghuashi, China
Current Conditions -  °F | °C
As of 10:00 AM on Thursday 27 Nov 2014 (Local Time) from ZGHA Reporting Station
Clear Clear  
Wind Chill: 61°   Ceiling: Unl
Heat Index: 61°   Visibility: 5mi
Dew Point: 52°   Wind: 7mph
Humidity: 72%   Direction: 160°SSE
Pressure: 29.94"   Gusts: NA
Location:  28.22°N, 113.28°E
Report Text: ZGHA 270200Z 16003MPS 8000 NSC 16/11 Q1014 NOSIG
Loading
Personal Weather Stations






























Interactive Weather Map New forecast layout! Learn more

10-Day Weather Forecast

Advertisements
Track Severe Weather on mobile